Time;durP1;ratioP1;P1;durP2;ratioP2;P2;SDS_P1;SDS_P2;PMS_P1;PMS_P2;Temp;Humidity;BMP_temperature;BMP_pressure;BME280_temperature;BME280_humidity;BME280_pressure;Samples;Min_cycle;Max_cycle;Signal;HPM_P1;HPM_P2
2021/09/02 00:00:11;;;;;;;9.85;6.82;;;;;;;15.36;67.44;98156.34;4921314;28;20186;-78
2021/09/02 00:02:36;;;;;;;11.13;6.35;;;;;;;15.25;67.32;98152.06;4953685;28;20042;-78
2021/09/02 00:05:03;;;;;;;11.20;6.63;;;;;;;15.25;67.34;98157.31;4970331;28;20405;-78
2021/09/02 00:07:28;;;;;;;9.18;7.15;;;;;;;15.18;67.52;98160.13;4927657;29;20505;-78
2021/09/02 00:09:54;;;;;;;8.80;6.32;;;;;;;15.10;67.59;98145.66;4920208;29;20031;-78
2021/09/02 00:12:19;;;;;;;10.38;6.53;;;;;;;15.06;67.77;98144.59;4923517;28;20035;-78
2021/09/02 00:14:45;;;;;;;9.48;6.80;;;;;;;14.98;68.07;98147.66;4953289;28;20450;-78
2021/09/02 00:17:10;;;;;;;12.75;7.75;;;;;;;14.87;68.15;98143.34;4921951;28;20043;-78
2021/09/02 00:19:36;;;;;;;10.88;6.90;;;;;;;14.79;68.36;98145.38;4920903;28;20038;-78
2021/09/02 00:22:02;;;;;;;8.57;6.53;;;;;;;14.68;68.53;98142.91;4953464;28;20519;-78
2021/09/02 00:24:27;;;;;;;10.55;7.38;;;;;;;14.65;69.05;98146.00;4937467;28;20035;-78
2021/09/02 00:26:53;;;;;;;12.15;7.47;;;;;;;14.60;69.15;98146.75;4937612;28;20061;-78
2021/09/02 00:29:18;;;;;;;9.63;8.05;;;;;;;14.57;69.45;98139.34;4936417;28;20045;-78
2021/09/02 00:31:44;;;;;;;12.02;7.10;;;;;;;14.53;68.79;98139.06;4921359;28;20035;-78
2021/09/02 00:34:09;;;;;;;11.73;7.80;;;;;;;14.41;69.11;98133.13;4936815;28;20516;-78
2021/09/02 00:36:34;;;;;;;10.35;7.53;;;;;;;14.52;69.45;98139.31;4937273;28;20125;-78
2021/09/02 00:39:00;;;;;;;9.88;7.40;;;;;;;14.58;69.11;98133.06;4952399;28;20035;-79
2021/09/02 00:41:25;;;;;;;8.90;7.25;;;;;;;14.60;69.25;98134.44;4936767;28;20227;-78
2021/09/02 00:43:50;;;;;;;11.07;8.00;;;;;;;14.69;69.36;98134.00;4937252;28;20105;-78
2021/09/02 00:46:17;;;;;;;11.30;7.30;;;;;;;14.72;68.86;98129.06;4953049;28;20446;-78
2021/09/02 00:48:44;;;;;;;14.55;8.80;;;;;;;14.76;68.87;98130.13;4919203;29;20635;-78
2021/09/02 00:51:10;;;;;;;10.18;7.20;;;;;;;14.88;68.19;98118.72;4921102;28;20471;-78
2021/09/02 00:53:35;;;;;;;10.20;6.60;;;;;;;14.90;68.04;98130.53;4955703;28;20089;-78
2021/09/02 00:56:00;;;;;;;10.15;6.57;;;;;;;14.91;67.74;98123.47;4953101;28;20240;-78
2021/09/02 00:58:26;;;;;;;11.02;6.97;;;;;;;14.90;67.64;98133.16;4951772;28;20473;-78
2021/09/02 01:00:51;;;;;;;8.77;6.68;;;;;;;14.85;67.11;98124.44;4937510;28;20121;-78
2021/09/02 01:05:47;;;;;;;8.82;6.40;;;;;;;14.74;67.64;98119.09;4930021;29;20051;-79
2021/09/02 01:08:13;;;;;;;8.60;6.30;;;;;;;14.81;67.70;98126.00;4900621;29;20467;-78
2021/09/02 01:10:40;;;;;;;9.52;6.32;;;;;;;14.82;67.46;98132.81;4901051;29;20414;-79
2021/09/02 01:13:05;;;;;;;11.60;6.40;;;;;;;14.78;67.51;98122.81;4933854;29;20035;-79
2021/09/02 01:15:31;;;;;;;10.77;7.70;;;;;;;14.72;67.71;98118.56;4931896;29;20043;-79
2021/09/02 01:17:59;;;;;;;8.95;7.63;;;;;;;14.66;67.73;98130.03;4916840;29;20031;-78
2021/09/02 01:20:27;;;;;;;9.48;6.40;;;;;;;14.72;67.87;98129.06;4914727;29;20042;-79
2021/09/02 01:22:59;;;;;;;11.23;6.93;;;;;;;14.66;67.86;98124.00;4900823;29;20459;-79
2021/09/02 01:25:40;;;;;;;10.90;6.95;;;;;;;14.53;68.13;98115.47;4938954;29;20047;-79
2021/09/02 01:28:16;;;;;;;10.07;6.53;;;;;;;14.59;67.68;98109.25;4940001;29;20305;-79
2021/09/02 01:30:42;;;;;;;12.27;7.43;;;;;;;14.58;67.85;98101.59;4914411;29;20073;-79
2021/09/02 01:33:10;;;;;;;10.32;7.32;;;;;;;14.54;68.28;98121.50;4914586;29;20099;-80
2021/09/02 01:35:35;;;;;;;9.30;6.55;;;;;;;14.43;68.36;98110.91;4902411;29;20067;-80
2021/09/02 01:38:05;;;;;;;11.02;7.00;;;;;;;14.32;68.28;98111.81;4915187;29;20110;-79
2021/09/02 01:40:36;;;;;;;8.82;6.55;;;;;;;14.18;68.88;98108.00;4914846;29;20062;-79
2021/09/02 01:43:03;;;;;;;10.77;6.53;;;;;;;14.23;68.60;98113.31;4899331;29;20052;-79
2021/09/02 01:45:29;;;;;;;8.88;7.05;;;;;;;14.28;68.09;98112.56;4914334;29;20035;-79
2021/09/02 01:47:56;;;;;;;9.80;7.03;;;;;;;14.22;68.35;98111.69;4898844;29;20035;-79
2021/09/02 01:50:24;;;;;;;8.45;6.97;;;;;;;14.23;68.51;98108.84;4914514;29;20075;-80
2021/09/02 01:52:52;;;;;;;9.95;7.13;;;;;;;14.20;68.42;98106.72;4899235;29;20040;-80
2021/09/02 01:55:18;;;;;;;10.10;7.20;;;;;;;14.26;68.70;98104.97;4896393;29;20047;-80
2021/09/02 01:57:43;;;;;;;9.95;6.63;;;;;;;14.24;68.48;98107.03;4911623;29;20550;-79
2021/09/02 02:00:11;;;;;;;9.68;6.70;;;;;;;14.20;68.70;98113.78;4899196;29;20055;-79
2021/09/02 02:02:37;;;;;;;12.02;6.75;;;;;;;14.14;68.28;98101.69;4883707;29;20086;-79
2021/09/02 02:05:03;;;;;;;12.15;7.43;;;;;;;14.17;68.72;98109.03;4929039;29;20075;-79
2021/09/02 02:07:28;;;;;;;9.52;7.43;;;;;;;14.14;69.13;98102.47;4934252;29;20032;-79
2021/09/02 02:09:54;;;;;;;9.68;7.45;;;;;;;14.06;69.16;98095.03;4902812;29;20028;-79
2021/09/02 02:12:19;;;;;;;12.32;7.32;;;;;;;14.09;68.65;98099.78;4886951;29;20557;-79
2021/09/02 02:14:45;;;;;;;9.88;7.10;;;;;;;13.97;68.98;98094.66;4919037;29;20494;-79
2021/09/02 02:17:12;;;;;;;8.65;6.70;;;;;;;13.96;69.13;98106.16;4953461;29;20027;-79
2021/09/02 02:19:38;;;;;;;11.32;7.65;;;;;;;13.89;69.24;98105.56;4937605;29;20035;-79
2021/09/02 02:22:04;;;;;;;10.15;6.72;;;;;;;13.83;69.03;98111.78;4905673;29;20046;-79
2021/09/02 02:24:31;;;;;;;10.45;7.25;;;;;;;13.79;69.34;98108.03;4936546;29;20122;-79
2021/09/02 02:26:57;;;;;;;10.18;7.47;;;;;;;13.75;69.40;98104.34;4905980;29;20446;-79
2021/09/02 02:29:23;;;;;;;9.85;7.50;;;;;;;13.71;69.35;98098.78;4919075;29;20122;-79
2021/09/02 02:31:51;;;;;;;10.77;7.65;;;;;;;13.67;69.75;98114.19;4902734;29;20403;-79
2021/09/02 02:34:17;;;;;;;9.43;7.18;;;;;;;13.75;69.43;98106.94;4917899;29;20024;-79
2021/09/02 02:36:43;;;;;;;12.57;7.95;;;;;;;13.84;69.57;98108.09;4902159;29;20096;-79
2021/09/02 02:39:10;;;;;;;10.23;7.32;;;;;;;13.89;69.04;98118.63;4902484;29;20071;-79
2021/09/02 02:41:36;;;;;;;10.90;6.75;;;;;;;13.92;68.88;98110.31;4917828;29;20034;-79
2021/09/02 02:44:02;;;;;;;9.77;7.50;;;;;;;13.91;69.69;98097.47;4924039;29;20482;-79
2021/09/02 02:46:27;;;;;;;10.40;7.18;;;;;;;13.94;69.14;98102.22;4920905;29;20106;-79
2021/09/02 02:48:53;;;;;;;13.20;8.10;;;;;;;13.87;69.44;98097.16;4936899;29;20035;-79
2021/09/02 02:51:18;;;;;;;13.30;7.53;;;;;;;13.87;69.91;98091.91;4905056;29;20031;-79
2021/09/02 02:53:43;;;;;;;11.15;7.18;;;;;;;13.91;69.47;98113.16;4917089;29;20068;-79
2021/09/02 02:56:09;;;;;;;9.40;7.22;;;;;;;13.85;69.28;98099.22;4933838;29;20486;-79
2021/09/02 02:58:34;;;;;;;10.65;7.43;;;;;;;13.81;69.05;98108.59;4917659;29;20126;-79
2021/09/02 03:01:00;;;;;;;10.32;7.32;;;;;;;13.78;69.29;98101.25;4933674;29;20501;-79
2021/09/02 03:03:25;;;;;;;12.70;8.07;;;;;;;13.82;69.37;98108.34;4932826;29;20054;-79
2021/09/02 03:05:50;;;;;;;11.52;8.20;;;;;;;13.81;69.46;98114.63;4917540;29;20118;-79
2021/09/02 03:08:16;;;;;;;10.95;7.20;;;;;;;13.83;69.06;98104.69;4917461;29;20395;-79
2021/09/02 03:10:41;;;;;;;11.20;7.20;;;;;;;13.84;68.96;98108.09;4916761;29;20075;-79
2021/09/02 03:13:07;;;;;;;11.32;8.05;;;;;;;13.79;69.29;98100.97;4917943;29;20162;-79
2021/09/02 03:15:33;;;;;;;13.20;8.32;;;;;;;13.77;69.72;98107.50;4936131;29;20047;-79
2021/09/02 03:17:59;;;;;;;13.60;8.68;;;;;;;13.77;69.93;98100.41;4936896;29;20023;-79
2021/09/02 03:20:24;;;;;;;13.55;8.95;;;;;;;13.74;70.38;98103.53;4920772;29;20399;-79
2021/09/02 03:22:49;;;;;;;13.32;8.48;;;;;;;13.77;70.24;98097.81;4953736;29;20038;-79
2021/09/02 03:25:15;;;;;;;13.77;8.95;;;;;;;13.77;70.34;98104.88;4936058;29;20110;-80
2021/09/02 03:27:41;;;;;;;15.13;9.68;;;;;;;13.82;70.03;98102.31;4918075;29;20059;-79
2021/09/02 03:30:08;;;;;;;16.63;9.32;;;;;;;13.77;70.50;98108.28;4916916;29;20114;-79
2021/09/02 03:32:34;;;;;;;14.35;9.98;;;;;;;13.78;70.43;98102.03;4917184;29;20082;-78
2021/09/02 03:34:59;;;;;;;15.38;8.75;;;;;;;13.76;70.37;98098.84;4917312;29;20063;-79
2021/09/02 03:37:24;;;;;;;16.42;9.48;;;;;;;13.74;70.28;98094.88;4917283;29;20530;-79
2021/09/02 03:39:50;;;;;;;13.13;8.27;;;;;;;13.77;69.58;98092.56;4917349;29;20505;-79
2021/09/02 03:42:15;;;;;;;11.57;7.63;;;;;;;13.70;69.68;98097.19;4901236;29;20067;-79
2021/09/02 03:44:40;;;;;;;11.93;8.20;;;;;;;13.66;69.64;98091.66;4900792;29;20080;-79
2021/09/02 03:47:06;;;;;;;12.55;8.35;;;;;;;13.67;69.89;98103.72;4886320;29;20388;-78
2021/09/02 03:49:31;;;;;;;14.68;8.73;;;;;;;13.63;70.24;98102.59;4901294;29;20062;-80
2021/09/02 03:51:57;;;;;;;12.43;8.15;;;;;;;13.56;70.08;98088.91;4916869;29;20028;-79
2021/09/02 03:54:22;;;;;;;13.77;8.48;;;;;;;13.57;70.35;98092.28;4918264;29;20027;-79
2021/09/02 03:56:50;;;;;;;13.27;8.40;;;;;;;13.58;70.25;98092.06;4935860;29;20090;-79
2021/09/02 03:59:15;;;;;;;12.80;8.40;;;;;;;13.55;70.13;98094.38;4952712;29;20043;-79
2021/09/02 04:01:41;;;;;;;12.55;7.97;;;;;;;13.56;69.70;98098.56;4935519;29;20081;-79
2021/09/02 04:04:06;;;;;;;12.63;8.30;;;;;;;13.51;69.76;98095.91;4919318;29;20440;-79
2021/09/02 04:06:31;;;;;;;11.10;8.05;;;;;;;13.50;70.01;98087.22;4935376;29;20122;-79
2021/09/02 04:08:57;;;;;;;13.02;8.43;;;;;;;13.43;70.53;98076.16;4935828;29;20058;-79
2021/09/02 04:11:22;;;;;;;13.27;8.77;;;;;;;13.47;70.53;98072.81;4935713;29;20039;-79
2021/09/02 04:13:47;;;;;;;13.75;8.57;;;;;;;13.53;70.35;98080.75;4929650;29;20234;-79
2021/09/02 04:16:13;;;;;;;15.15;10.10;;;;;;;13.53;70.87;98084.13;4904115;29;20371;-79
2021/09/02 04:18:38;;;;;;;14.15;9.65;;;;;;;13.53;70.32;98084.13;4934948;29;20414;-79
2021/09/02 04:21:04;;;;;;;14.50;8.43;;;;;;;13.58;69.91;98088.66;4919665;28;20501;-79
2021/09/02 04:23:33;;;;;;;13.13;7.90;;;;;;;13.42;69.98;98088.44;4946789;29;20126;-79
2021/09/02 04:26:00;;;;;;;13.55;8.38;;;;;;;13.39;69.97;98082.91;4919581;29;20035;-79
2021/09/02 04:28:26;;;;;;;12.77;9.02;;;;;;;13.40;69.87;98085.28;4919262;29;20038;-79
2021/09/02 04:30:51;;;;;;;14.05;7.80;;;;;;;13.30;70.23;98080.66;4919559;29;20434;-79
2021/09/02 04:33:16;;;;;;;13.85;8.45;;;;;;;13.18;70.54;98066.06;4952312;29;20042;-79
2021/09/02 04:35:42;;;;;;;14.05;8.25;;;;;;;13.23;70.42;98074.81;4935010;29;20066;-79
2021/09/02 04:38:07;;;;;;;14.07;8.80;;;;;;;13.17;70.71;98075.75;4903492;29;20027;-79
2021/09/02 04:40:33;;;;;;;13.38;8.90;;;;;;;13.12;70.59;98073.06;4919203;29;20550;-79
2021/09/02 04:42:59;;;;;;;13.73;8.82;;;;;;;13.05;70.85;98077.66;4919193;29;20280;-79
2021/09/02 04:45:24;;;;;;;14.73;8.93;;;;;;;13.03;70.81;98069.25;4918958;29;20657;-79
2021/09/02 04:47:50;;;;;;;17.25;9.55;;;;;;;12.99;71.27;98075.97;4934874;29;20038;-79
2021/09/02 04:50:16;;;;;;;14.20;9.68;;;;;;;13.12;71.17;98091.34;4918942;29;20038;-79
2021/09/02 04:52:41;;;;;;;12.98;8.82;;;;;;;13.12;71.23;98093.97;4919019;29;20027;-79
2021/09/02 04:55:08;;;;;;;14.70;9.60;;;;;;;13.19;71.21;98099.03;4934679;29;20035;-79
2021/09/02 04:57:33;;;;;;;16.45;10.13;;;;;;;13.24;71.17;98099.91;4918859;29;20075;-81
2021/09/02 04:59:58;;;;;;;13.13;9.50;;;;;;;13.21;70.52;98095.19;4934098;29;20063;-81
2021/09/02 05:02:24;;;;;;;15.27;9.68;;;;;;;13.24;70.79;98094.69;4901566;29;20035;-81
2021/09/02 05:04:49;;;;;;;12.50;8.52;;;;;;;13.26;70.30;98102.28;4916937;29;20035;-81
2021/09/02 05:07:15;;;;;;;16.20;9.43;;;;;;;13.32;70.36;98101.38;4933089;29;20182;-81
2021/09/02 05:09:42;;;;;;;15.13;8.90;;;;;;;13.25;70.26;98101.50;4933567;29;20041;-81
2021/09/02 05:12:08;;;;;;;15.32;8.75;;;;;;;13.24;70.53;98101.75;4917510;29;20049;-80
2021/09/02 05:14:33;;;;;;;17.10;9.90;;;;;;;13.32;70.63;98113.66;4901543;29;20446;-80
2021/09/02 05:16:58;;;;;;;15.15;9.63;;;;;;;13.30;71.08;98109.44;4949382;29;20129;-81
2021/09/02 05:19:24;;;;;;;13.45;9.07;;;;;;;13.31;70.87;98104.97;4934356;29;20039;-81
2021/09/02 05:21:49;;;;;;;17.10;10.15;;;;;;;13.32;70.85;98111.84;4918318;29;20373;-81
2021/09/02 05:24:15;;;;;;;15.18;10.05;;;;;;;13.38;70.81;98104.84;4918041;29;20036;-81
2021/09/02 05:26:43;;;;;;;12.98;8.90;;;;;;;13.39;70.40;98095.97;4918701;29;20031;-79
2021/09/02 05:29:08;;;;;;;13.55;9.50;;;;;;;13.42;70.48;98098.13;4916222;29;20039;-80
2021/09/02 05:31:34;;;;;;;14.98;10.07;;;;;;;13.45;70.97;98106.28;4888993;29;20407;-79
2021/09/02 05:33:59;;;;;;;16.90;10.05;;;;;;;13.44;71.32;98107.31;4915536;29;20047;-80
2021/09/02 05:36:24;;;;;;;15.30;9.40;;;;;;;13.49;70.92;98111.81;4915368;29;20034;-79
2021/09/02 05:38:50;;;;;;;15.98;10.30;;;;;;;13.51;70.95;98108.97;4899624;29;20063;-79
2021/09/02 05:41:15;;;;;;;17.95;10.13;;;;;;;13.52;71.34;98108.75;4899992;29;20031;-79
2021/09/02 05:43:40;;;;;;;17.15;9.68;;;;;;;13.54;71.08;98113.69;4898997;29;20036;-80
2021/09/02 05:46:06;;;;;;;14.55;8.98;;;;;;;13.59;71.08;98109.34;4884177;29;20364;-79
2021/09/02 05:48:31;;;;;;;17.33;10.07;;;;;;;13.65;71.22;98111.00;4899637;29;20475;-79
2021/09/02 05:50:57;;;;;;;15.82;9.55;;;;;;;13.76;70.96;98114.56;4899083;29;20030;-79
2021/09/02 05:53:22;;;;;;;17.52;10.70;;;;;;;13.84;70.99;98119.34;4899560;29;20043;-79
2021/09/02 05:55:50;;;;;;;15.82;10.43;;;;;;;13.90;71.03;98112.38;4918196;29;20035;-79
2021/09/02 05:58:18;;;;;;;14.45;10.05;;;;;;;13.97;70.92;98115.59;4917715;29;20070;-79
2021/09/02 06:00:43;;;;;;;17.98;10.77;;;;;;;13.99;70.93;98120.59;4934041;29;20375;-79
2021/09/02 06:03:09;;;;;;;20.63;10.38;;;;;;;14.01;70.82;98097.59;4933702;29;20047;-79
2021/09/02 06:05:35;;;;;;;15.80;10.68;;;;;;;14.04;70.89;98110.19;4934188;29;20483;-79
2021/09/02 06:08:00;;;;;;;14.75;10.40;;;;;;;14.08;70.76;98103.44;4934362;29;20348;-79
2021/09/02 06:10:26;;;;;;;14.00;8.68;;;;;;;14.23;70.78;98121.94;4918430;29;20032;-79
2021/09/02 06:12:53;;;;;;;16.45;10.05;;;;;;;14.20;70.60;98111.94;4918439;29;20031;-79
2021/09/02 06:15:19;;;;;;;15.70;10.18;;;;;;;14.30;70.75;98110.50;4916300;29;20023;-79
2021/09/02 06:17:44;;;;;;;16.45;10.15;;;;;;;14.36;70.83;98109.50;4918069;29;20257;-79
2021/09/02 06:20:10;;;;;;;17.05;10.00;;;;;;;14.40;70.80;98111.38;4902432;29;20063;-79
2021/09/02 06:22:35;;;;;;;14.93;10.30;;;;;;;14.45;70.78;98115.13;4902349;29;20066;-79
2021/09/02 06:25:01;;;;;;;13.13;9.63;;;;;;;14.43;71.12;98108.28;4918027;29;20067;-78
2021/09/02 06:27:27;;;;;;;16.98;10.20;;;;;;;14.53;70.71;98112.03;4933770;29;20035;-79
2021/09/02 06:29:53;;;;;;;15.23;9.68;;;;;;;14.66;70.63;98110.91;4918116;29;20031;-79
2021/09/02 06:32:19;;;;;;;16.80;10.15;;;;;;;14.61;70.93;98101.16;4902379;29;20499;-79
2021/09/02 06:34:44;;;;;;;13.95;9.68;;;;;;;14.70;70.67;98114.59;4917756;29;20146;-79
2021/09/02 06:37:10;;;;;;;13.65;9.52;;;;;;;14.77;70.66;98110.75;4918252;29;20024;-79
2021/09/02 06:39:35;;;;;;;15.00;9.35;;;;;;;14.76;70.45;98106.53;4918081;29;20035;-78
2021/09/02 06:42:01;;;;;;;16.75;9.60;;;;;;;15.00;69.80;98113.31;4917803;29;20031;-78
2021/09/02 06:44:26;;;;;;;14.45;8.82;;;;;;;15.20;70.06;98115.28;4933074;28;20505;-78
2021/09/02 06:46:52;;;;;;;12.45;9.02;;;;;;;15.29;69.49;98124.28;4936194;29;20062;-78
2021/09/02 06:49:19;;;;;;;11.32;8.43;;;;;;;15.28;69.01;98120.84;4921401;29;20406;-79
2021/09/02 06:51:45;;;;;;;12.98;8.20;;;;;;;15.54;68.85;98118.41;4936181;29;20066;-79
2021/09/02 06:54:10;;;;;;;11.98;8.82;;;;;;;15.69;68.88;98107.22;4901775;29;20063;-78
2021/09/02 06:56:36;;;;;;;11.30;7.28;;;;;;;15.83;68.38;98107.59;4886244;29;20039;-79
2021/09/02 06:59:01;;;;;;;12.20;8.07;;;;;;;15.89;68.06;98107.34;4899371;29;20034;-78
2021/09/02 07:01:27;;;;;;;11.18;7.82;;;;;;;16.03;67.52;98120.03;4920988;29;20031;-78
2021/09/02 07:03:53;;;;;;;8.45;7.05;;;;;;;16.15;67.60;98107.47;4920016;29;20066;-78
2021/09/02 07:06:18;;;;;;;11.35;7.65;;;;;;;16.34;67.24;98114.88;4937085;29;20023;-78
2021/09/02 07:08:44;;;;;;;12.85;8.02;;;;;;;16.51;66.86;98104.94;4920538;29;20328;-79
2021/09/02 07:11:09;;;;;;;10.85;6.88;;;;;;;16.61;66.36;98115.47;4920683;29;20031;-79
2021/09/02 07:13:34;;;;;;;8.82;7.28;;;;;;;16.64;66.17;98112.34;4905354;29;20031;-79
2021/09/02 07:16:00;;;;;;;9.73;7.25;;;;;;;16.92;65.50;98120.03;4921210;29;20474;-79
2021/09/02 07:18:26;;;;;;;10.60;6.40;;;;;;;16.94;65.38;98117.91;4905223;29;20122;-79
2021/09/02 07:20:52;;;;;;;8.13;6.18;;;;;;;17.01;64.97;98103.44;4905029;29;20514;-79
2021/09/02 07:23:18;;;;;;;9.23;6.85;;;;;;;17.31;64.13;98109.75;4904963;29;20035;-79
2021/09/02 07:25:44;;;;;;;10.13;6.13;;;;;;;17.33;64.00;98112.91;4920371;29;20039;-79
2021/09/02 07:28:09;;;;;;;7.03;6.20;;;;;;;17.27;64.09;98111.34;4920522;29;20463;-79
2021/09/02 07:30:35;;;;;;;9.15;6.57;;;;;;;17.46;63.78;98116.88;4920794;29;20445;-78
2021/09/02 07:33:00;;;;;;;8.43;5.70;;;;;;;17.87;62.97;98116.00;4920396;29;20062;-79
2021/09/02 07:35:26;;;;;;;7.20;5.68;;;;;;;17.82;62.76;98129.16;4904410;29;20058;-78
2021/09/02 07:37:51;;;;;;;8.35;6.28;;;;;;;18.10;61.76;98125.16;4901517;29;20486;-79
2021/09/02 07:40:17;;;;;;;9.07;7.00;;;;;;;18.22;61.69;98130.91;4886898;28;20026;-79
2021/09/02 07:42:44;;;;;;;9.38;6.32;;;;;;;18.32;60.90;98130.84;4936989;29;20494;-79
2021/09/02 07:45:11;;;;;;;7.10;5.85;;;;;;;18.33;60.78;98126.34;4935914;29;20110;-79
2021/09/02 07:47:38;;;;;;;6.35;5.35;;;;;;;18.57;60.40;98131.75;4921175;28;20027;-79
2021/09/02 07:50:05;;;;;;;6.72;5.32;;;;;;;18.64;59.72;98123.56;4916502;29;20422;-78
2021/09/02 07:52:34;;;;;;;10.10;5.63;;;;;;;18.75;59.58;98132.19;4919593;29;20027;-78
2021/09/02 07:55:00;;;;;;;6.32;5.28;;;;;;;19.08;59.40;98135.94;4923742;29;20145;-78
2021/09/02 07:57:26;;;;;;;8.25;5.65;;;;;;;19.12;58.82;98130.91;4919556;29;20589;-79
2021/09/02 07:59:51;;;;;;;7.45;5.82;;;;;;;19.14;58.56;98136.69;4901623;29;20438;-79
2021/09/02 08:02:17;;;;;;;6.40;4.90;;;;;;;19.28;58.70;98138.44;4908391;28;20253;-79
2021/09/02 08:04:42;;;;;;;7.20;5.28;;;;;;;19.52;58.22;98132.41;4912729;29;20038;-79
2021/09/02 08:07:08;;;;;;;6.43;5.30;;;;;;;19.82;57.56;98122.63;4918990;29;20126;-79
2021/09/02 08:09:33;;;;;;;6.00;4.95;;;;;;;19.70;56.91;98122.97;4914296;28;20030;-78
2021/09/02 08:11:58;;;;;;;6.95;5.10;;;;;;;19.82;56.36;98131.31;4922487;28;20023;-79
2021/09/02 08:14:24;;;;;;;6.25;4.22;;;;;;;20.01;56.74;98138.53;4921897;28;20034;-79
2021/09/02 08:16:49;;;;;;;7.25;5.10;;;;;;;20.21;56.12;98133.00;4918317;29;20050;-79
2021/09/02 08:19:15;;;;;;;5.50;4.78;;;;;;;19.97;55.68;98129.59;4918935;29;20047;-79
2021/09/02 08:21:40;;;;;;;6.63;5.03;;;;;;;20.12;55.82;98129.41;4902168;29;20114;-79
2021/09/02 08:24:07;;;;;;;5.88;4.50;;;;;;;20.31;56.14;98145.31;4915916;29;20044;-79
2021/09/02 08:26:34;;;;;;;5.32;4.45;;;;;;;20.63;54.95;98138.59;4915019;29;20035;-79
2021/09/02 08:29:00;;;;;;;6.43;4.90;;;;;;;20.72;55.03;98128.16;4900015;29;20062;-79
2021/09/02 08:31:25;;;;;;;6.35;4.70;;;;;;;20.82;54.43;98125.34;4896108;29;20023;-78
2021/09/02 08:33:50;;;;;;;6.90;4.97;;;;;;;20.83;54.31;98128.78;4903265;29;20252;-80
2021/09/02 08:36:16;;;;;;;5.22;4.30;;;;;;;20.89;54.55;98123.13;4915301;29;20082;-78
2021/09/02 08:38:47;;;;;;;6.40;5.47;;;;;;;21.31;54.17;98128.53;4930994;29;20047;-79
2021/09/02 08:41:14;;;;;;;5.50;3.95;;;;;;;21.53;53.08;98129.78;4914914;29;20035;-79
2021/09/02 08:43:41;;;;;;;5.78;4.63;;;;;;;21.53;53.02;98135.09;4917641;29;20042;-79
2021/09/02 08:46:07;;;;;;;6.35;4.70;;;;;;;21.33;52.44;98126.38;4916080;29;20490;-80
2021/09/02 08:48:33;;;;;;;4.90;4.45;;;;;;;21.74;52.36;98128.31;4930434;29;20036;-79
2021/09/02 08:50:59;;;;;;;5.35;4.45;;;;;;;21.93;51.80;98135.41;4915135;29;20064;-79
2021/09/02 08:53:25;;;;;;;4.82;4.35;;;;;;;21.99;49.98;98131.59;4894228;29;20059;-79
2021/09/02 08:55:50;;;;;;;5.00;4.50;;;;;;;22.51;50.13;98131.34;4929790;29;20050;-79
2021/09/02 08:58:15;;;;;;;4.57;3.70;;;;;;;22.26;50.90;98122.81;4929109;29;20047;-79
2021/09/02 09:00:41;;;;;;;5.18;4.68;;;;;;;22.74;50.12;98130.28;4919162;29;20027;-78
2021/09/02 09:03:06;;;;;;;4.82;3.97;;;;;;;22.99;49.59;98125.47;4917082;29;20027;-78
2021/09/02 09:05:35;;;;;;;5.00;4.50;;;;;;;23.25;49.25;98127.53;4917610;29;20042;-79
2021/09/02 09:08:07;;;;;;;6.13;3.80;;;;;;;23.63;47.90;98121.78;4918253;29;20027;-79
2021/09/02 09:10:32;;;;;;;5.63;4.32;;;;;;;23.75;47.79;98125.44;4917411;29;20035;-79
2021/09/02 09:12:59;;;;;;;5.38;4.03;;;;;;;23.62;45.86;98118.34;4903673;29;20027;-78
2021/09/02 09:15:27;;;;;;;5.35;4.20;;;;;;;23.88;45.71;98113.13;4882821;29;20087;-79
2021/09/02 09:17:54;;;;;;;5.47;4.57;;;;;;;23.60;45.14;98117.09;4914487;29;20482;-79
2021/09/02 09:20:21;;;;;;;4.60;4.13;;;;;;;23.67;45.89;98118.19;4910903;29;20023;-79
2021/09/02 09:22:49;;;;;;;4.38;3.97;;;;;;;23.56;45.87;98117.69;4932917;29;20383;-79
2021/09/02 09:25:15;;;;;;;4.40;4.00;;;;;;;23.72;45.82;98104.78;4933218;29;20035;-78
2021/09/02 09:27:44;;;;;;;4.63;4.00;;;;;;;24.10;45.58;98111.47;4917640;29;20540;-79
2021/09/02 09:30:11;;;;;;;4.88;3.80;;;;;;;24.48;44.79;98106.34;4917507;29;20442;-79
2021/09/02 09:32:37;;;;;;;4.70;3.85;;;;;;;24.82;43.98;98098.69;4901403;29;20027;-79
2021/09/02 09:35:08;;;;;;;4.72;3.70;;;;;;;24.38;43.75;98104.00;4938680;29;20031;-79
2021/09/02 09:37:34;;;;;;;5.22;4.13;;;;;;;24.66;43.93;98101.06;4933568;29;20031;-78
2021/09/02 09:40:33;;;;;;;4.45;3.75;;;;;;;24.68;44.38;98101.53;4917429;29;20083;-79
2021/09/02 09:43:04;;;;;;;4.20;3.28;;;;;;;24.80;41.87;98080.38;4866417;29;20048;-79
2021/09/02 09:45:35;;;;;;;4.55;3.70;;;;;;;25.06;41.58;98095.53;4902027;29;20054;-79
2021/09/02 09:48:01;;;;;;;6.60;3.90;;;;;;;25.18;42.10;98094.88;4917928;29;20043;-79
2021/09/02 09:50:27;;;;;;;4.03;3.50;;;;;;;24.80;41.63;98099.00;4918190;29;20027;-80
2021/09/02 09:52:52;;;;;;;5.00;3.85;;;;;;;24.55;41.13;98089.94;4898521;29;20244;-79
2021/09/02 09:55:18;;;;;;;5.18;4.20;;;;;;;24.54;41.81;98090.22;4899539;29;20118;-79
2021/09/02 09:57:46;;;;;;;5.88;4.00;;;;;;;24.36;41.85;98094.75;4889759;29;20039;-80
2021/09/02 10:00:16;;;;;;;5.28;4.38;;;;;;;24.34;41.02;98086.31;4919394;29;20029;-79
2021/09/02 10:02:47;;;;;;;4.10;3.50;;;;;;;24.89;41.75;98095.56;4898308;29;20517;-78
2021/09/02 10:05:13;;;;;;;4.65;3.83;;;;;;;25.03;41.28;98091.59;4930782;29;20068;-79
2021/09/02 10:07:50;;;;;;;4.15;3.75;;;;;;;25.30;42.49;98078.25;4930228;29;20055;-79
2021/09/02 10:10:16;;;;;;;4.60;4.10;;;;;;;25.86;39.47;98081.63;4913983;29;20055;-79
2021/09/02 10:12:44;;;;;;;4.72;3.83;;;;;;;25.53;40.31;98082.25;4922196;29;20442;-79
2021/09/02 10:15:18;;;;;;;4.68;3.92;;;;;;;25.37;40.39;98089.97;4934357;29;20036;-79
2021/09/02 10:17:44;;;;;;;;;;;;;;;25.16;40.18;98081.88;4900225;29;20039;-79
2021/09/02 10:20:19;;;;;;;4.40;3.45;;;;;;;25.27;39.98;98079.66;4917875;29;19953;-79
2021/09/02 10:22:46;;;;;;;4.32;3.80;;;;;;;25.56;38.22;98075.47;4918540;29;20044;-80
2021/09/02 10:25:33;;;;;;;4.10;3.70;;;;;;;25.33;39.17;98067.72;4901871;29;20032;-79
2021/09/02 10:28:00;;;;;;;5.60;3.83;;;;;;;25.58;39.83;98068.75;4934293;29;20126;-79
2021/09/02 10:30:26;;;;;;;5.13;3.63;;;;;;;25.93;40.85;98068.53;4918367;29;20027;-79
2021/09/02 10:32:53;;;;;;;3.95;3.55;;;;;;;26.21;38.81;98067.28;4886457;29;20146;-79
2021/09/02 10:35:19;;;;;;;4.32;3.88;;;;;;;26.32;39.46;98063.91;4900796;29;20040;-79
2021/09/02 10:37:44;;;;;;;4.53;4.13;;;;;;;26.27;37.56;98066.78;4933348;29;20035;-79
2021/09/02 10:40:16;;;;;;;4.40;4.00;;;;;;;25.73;37.23;98063.94;4924911;29;20031;-79
2021/09/02 10:42:44;;;;;;;4.35;3.95;;;;;;;25.59;36.94;98064.19;4929319;29;20043;-79
2021/09/02 10:45:25;;;;;;;4.43;4.03;;;;;;;25.55;37.81;98069.38;4918358;29;20091;-79
2021/09/02 10:47:55;;;;;;;5.07;3.78;;;;;;;24.89;37.14;98052.94;4903196;29;20054;-78
2021/09/02 10:50:22;;;;;;;4.07;3.67;;;;;;;24.78;37.60;98060.47;4934528;29;20047;-80
2021/09/02 10:52:48;;;;;;;4.85;4.03;;;;;;;24.82;38.21;98062.19;4906425;29;20027;-79
2021/09/02 10:55:32;;;;;;;4.88;4.47;;;;;;;24.41;38.39;98062.66;4922009;29;20047;-79
2021/09/02 10:58:01;;;;;;;4.13;3.65;;;;;;;24.30;38.18;98049.66;4906677;29;20031;-79
2021/09/02 11:00:40;;;;;;;5.00;4.18;;;;;;;24.98;38.50;98051.03;4906969;29;20030;-79
2021/09/02 11:03:25;;;;;;;4.68;3.92;;;;;;;25.35;37.89;98064.75;4920387;29;20027;-79
2021/09/02 11:05:57;;;;;;;4.88;4.47;;;;;;;25.45;36.96;98058.25;4917971;29;20071;-80
2021/09/02 11:08:33;;;;;;;4.82;4.32;;;;;;;25.35;37.02;98054.84;4903519;29;20039;-79
2021/09/02 11:11:09;;;;;;;4.57;4.18;;;;;;;26.03;36.67;98056.75;4902032;29;20044;-79
2021/09/02 11:13:34;;;;;;;5.22;4.25;;;;;;;26.01;33.78;98050.91;4934386;29;20036;-79
2021/09/02 11:16:14;;;;;;;5.38;4.40;;;;;;;25.46;33.46;98059.84;4918780;29;20365;-79
2021/09/02 11:18:54;;;;;;;4.90;3.95;;;;;;;25.80;35.17;98050.88;4902507;29;20054;-79
2021/09/02 11:21:25;;;;;;;4.10;3.70;;;;;;;25.69;35.75;98049.69;4902109;29;20122;-79
2021/09/02 11:23:59;;;;;;;5.40;4.90;;;;;;;25.80;35.65;98048.97;4950844;29;20047;-80
2021/09/02 11:26:51;;;;;;;6.25;4.03;;;;;;;25.81;37.11;98055.13;4925693;29;20027;-79
2021/09/02 11:29:21;;;;;;;4.55;4.07;;;;;;;25.72;36.02;98044.50;4912490;29;20406;-80